sensor_id;sensor_type;location;lat;lon;timestamp;P1;durP1;ratioP1;P2;durP2;ratioP2
7308;SDS011;3695;53.330;9.876;2022-08-19T00:00:33;7.72;;;6.05;;
7308;SDS011;3695;53.330;9.876;2022-08-19T00:02:59;9.53;;;6.17;;
7308;SDS011;3695;53.330;9.876;2022-08-19T00:05:26;7.55;;;6.25;;
7308;SDS011;3695;53.330;9.876;2022-08-19T00:07:52;8.68;;;7.03;;
7308;SDS011;3695;53.330;9.876;2022-08-19T00:10:20;9.23;;;7.32;;
7308;SDS011;3695;53.330;9.876;2022-08-19T00:12:47;9.27;;;6.57;;
7308;SDS011;3695;53.330;9.876;2022-08-19T00:15:15;10.63;;;6.95;;
7308;SDS011;3695;53.330;9.876;2022-08-19T00:17:44;9.93;;;7.00;;
7308;SDS011;3695;53.330;9.876;2022-08-19T00:20:12;9.40;;;6.38;;
7308;SDS011;3695;53.330;9.876;2022-08-19T00:22:42;13.98;;;8.38;;
7308;SDS011;3695;53.330;9.876;2022-08-19T00:25:09;8.98;;;6.90;;
7308;SDS011;3695;53.330;9.876;2022-08-19T00:27:37;9.97;;;7.40;;
7308;SDS011;3695;53.330;9.876;2022-08-19T00:30:05;12.13;;;7.50;;
7308;SDS011;3695;53.330;9.876;2022-08-19T00:32:32;9.07;;;7.43;;
7308;SDS011;3695;53.330;9.876;2022-08-19T00:34:59;10.53;;;7.40;;
7308;SDS011;3695;53.330;9.876;2022-08-19T00:37:26;9.40;;;7.93;;
7308;SDS011;3695;53.330;9.876;2022-08-19T00:39:53;9.67;;;6.97;;
7308;SDS011;3695;53.330;9.876;2022-08-19T00:42:21;10.77;;;7.30;;
7308;SDS011;3695;53.330;9.876;2022-08-19T00:44:49;9.83;;;7.10;;
7308;SDS011;3695;53.330;9.876;2022-08-19T00:47:16;11.00;;;7.50;;
7308;SDS011;3695;53.330;9.876;2022-08-19T00:49:43;11.03;;;6.90;;
7308;SDS011;3695;53.330;9.876;2022-08-19T00:52:16;9.93;;;7.00;;
7308;SDS011;3695;53.330;9.876;2022-08-19T00:54:46;10.23;;;6.57;;
7308;SDS011;3695;53.330;9.876;2022-08-19T00:57:14;9.77;;;7.20;;
7308;SDS011;3695;53.330;9.876;2022-08-19T00:59:45;9.57;;;7.23;;
7308;SDS011;3695;53.330;9.876;2022-08-19T01:02:15;11.73;;;7.00;;
7308;SDS011;3695;53.330;9.876;2022-08-19T01:04:42;9.30;;;6.53;;
7308;SDS011;3695;53.330;9.876;2022-08-19T01:07:09;8.67;;;6.10;;
7308;SDS011;3695;53.330;9.876;2022-08-19T01:09:35;12.37;;;7.23;;
7308;SDS011;3695;53.330;9.876;2022-08-19T01:12:02;10.87;;;7.13;;
7308;SDS011;3695;53.330;9.876;2022-08-19T01:14:29;10.93;;;7.70;;
7308;SDS011;3695;53.330;9.876;2022-08-19T01:16:56;12.37;;;7.60;;
7308;SDS011;3695;53.330;9.876;2022-08-19T01:19:27;13.87;;;6.97;;
7308;SDS011;3695;53.330;9.876;2022-08-19T01:21:58;9.83;;;6.50;;
7308;SDS011;3695;53.330;9.876;2022-08-19T01:24:29;10.10;;;7.50;;
7308;SDS011;3695;53.330;9.876;2022-08-19T01:26:56;10.57;;;7.27;;
7308;SDS011;3695;53.330;9.876;2022-08-19T01:29:23;9.77;;;6.87;;
7308;SDS011;3695;53.330;9.876;2022-08-19T01:31:50;14.60;;;7.90;;
7308;SDS011;3695;53.330;9.876;2022-08-19T01:34:17;11.83;;;7.27;;
7308;SDS011;3695;53.330;9.876;2022-08-19T01:36:45;11.03;;;7.10;;
7308;SDS011;3695;53.330;9.876;2022-08-19T01:39:14;10.50;;;7.53;;
7308;SDS011;3695;53.330;9.876;2022-08-19T01:41:45;12.03;;;8.00;;
7308;SDS011;3695;53.330;9.876;2022-08-19T01:44:12;10.63;;;7.27;;
7308;SDS011;3695;53.330;9.876;2022-08-19T01:46:38;9.83;;;7.33;;
7308;SDS011;3695;53.330;9.876;2022-08-19T01:49:05;10.50;;;6.70;;
7308;SDS011;3695;53.330;9.876;2022-08-19T01:51:33;9.23;;;7.00;;
7308;SDS011;3695;53.330;9.876;2022-08-19T01:53:59;10.67;;;8.07;;
7308;SDS011;3695;53.330;9.876;2022-08-19T01:56:26;10.40;;;7.53;;
7308;SDS011;3695;53.330;9.876;2022-08-19T01:58:56;9.03;;;7.63;;
7308;SDS011;3695;53.330;9.876;2022-08-19T02:01:25;11.50;;;6.73;;
7308;SDS011;3695;53.330;9.876;2022-08-19T02:03:52;10.87;;;7.80;;
7308;SDS011;3695;53.330;9.876;2022-08-19T02:06:20;11.07;;;8.20;;
7308;SDS011;3695;53.330;9.876;2022-08-19T02:08:46;14.73;;;7.47;;
7308;SDS011;3695;53.330;9.876;2022-08-19T02:11:18;11.40;;;7.60;;
7308;SDS011;3695;53.330;9.876;2022-08-19T02:13:45;14.60;;;8.07;;
7308;SDS011;3695;53.330;9.876;2022-08-19T02:16:13;12.87;;;7.83;;
7308;SDS011;3695;53.330;9.876;2022-08-19T02:18:40;11.67;;;7.97;;
7308;SDS011;3695;53.330;9.876;2022-08-19T02:21:06;12.50;;;7.50;;
7308;SDS011;3695;53.330;9.876;2022-08-19T02:23:33;12.10;;;7.20;;
7308;SDS011;3695;53.330;9.876;2022-08-19T02:25:59;18.03;;;7.93;;
7308;SDS011;3695;53.330;9.876;2022-08-19T02:28:25;10.40;;;7.03;;
7308;SDS011;3695;53.330;9.876;2022-08-19T02:30:52;11.03;;;7.43;;
7308;SDS011;3695;53.330;9.876;2022-08-19T02:33:20;8.73;;;7.17;;
7308;SDS011;3695;53.330;9.876;2022-08-19T02:35:46;15.60;;;7.30;;
7308;SDS011;3695;53.330;9.876;2022-08-19T02:38:13;11.53;;;8.10;;
7308;SDS011;3695;53.330;9.876;2022-08-19T02:40:53;9.17;;;7.90;;
7308;SDS011;3695;53.330;9.876;2022-08-19T02:43:21;11.90;;;8.17;;
7308;SDS011;3695;53.330;9.876;2022-08-19T02:45:48;12.30;;;7.80;;
7308;SDS011;3695;53.330;9.876;2022-08-19T02:48:16;13.13;;;7.87;;
7308;SDS011;3695;53.330;9.876;2022-08-19T02:50:45;11.67;;;7.67;;
7308;SDS011;3695;53.330;9.876;2022-08-19T02:53:13;10.30;;;8.33;;
7308;SDS011;3695;53.330;9.876;2022-08-19T02:55:43;10.70;;;8.20;;
7308;SDS011;3695;53.330;9.876;2022-08-19T02:58:11;12.33;;;8.07;;
7308;SDS011;3695;53.330;9.876;2022-08-19T03:00:41;10.60;;;7.47;;
7308;SDS011;3695;53.330;9.876;2022-08-19T03:03:08;11.30;;;8.10;;
7308;SDS011;3695;53.330;9.876;2022-08-19T03:05:35;12.57;;;8.73;;
7308;SDS011;3695;53.330;9.876;2022-08-19T03:08:03;13.03;;;8.37;;
7308;SDS011;3695;53.330;9.876;2022-08-19T03:10:30;14.87;;;9.93;;
7308;SDS011;3695;53.330;9.876;2022-08-19T03:12:57;14.00;;;8.83;;
7308;SDS011;3695;53.330;9.876;2022-08-19T03:15:23;15.57;;;9.60;;
7308;SDS011;3695;53.330;9.876;2022-08-19T03:17:50;23.93;;;9.60;;
7308;SDS011;3695;53.330;9.876;2022-08-19T03:20:17;15.43;;;9.80;;
7308;SDS011;3695;53.330;9.876;2022-08-19T03:22:43;20.20;;;11.53;;
7308;SDS011;3695;53.330;9.876;2022-08-19T03:25:11;21.60;;;10.80;;
7308;SDS011;3695;53.330;9.876;2022-08-19T03:27:37;20.23;;;10.40;;
7308;SDS011;3695;53.330;9.876;2022-08-19T03:30:04;20.17;;;11.53;;
7308;SDS011;3695;53.330;9.876;2022-08-19T03:32:32;16.77;;;11.33;;
7308;SDS011;3695;53.330;9.876;2022-08-19T03:34:58;15.40;;;10.53;;
7308;SDS011;3695;53.330;9.876;2022-08-19T03:37:25;18.83;;;11.53;;
7308;SDS011;3695;53.330;9.876;2022-08-19T03:39:51;21.23;;;12.20;;
7308;SDS011;3695;53.330;9.876;2022-08-19T03:42:19;22.37;;;12.10;;
7308;SDS011;3695;53.330;9.876;2022-08-19T03:44:46;25.63;;;12.90;;
7308;SDS011;3695;53.330;9.876;2022-08-19T03:47:12;20.80;;;12.53;;
7308;SDS011;3695;53.330;9.876;2022-08-19T03:49:41;23.70;;;11.47;;
7308;SDS011;3695;53.330;9.876;2022-08-19T03:52:08;25.23;;;11.53;;
7308;SDS011;3695;53.330;9.876;2022-08-19T03:54:34;18.77;;;11.60;;
7308;SDS011;3695;53.330;9.876;2022-08-19T03:57:03;19.73;;;10.70;;
7308;SDS011;3695;53.330;9.876;2022-08-19T03:59:32;22.17;;;12.87;;
7308;SDS011;3695;53.330;9.876;2022-08-19T04:02:02;23.93;;;11.77;;
7308;SDS011;3695;53.330;9.876;2022-08-19T04:04:34;23.23;;;11.47;;
7308;SDS011;3695;53.330;9.876;2022-08-19T04:07:00;24.73;;;12.93;;
7308;SDS011;3695;53.330;9.876;2022-08-19T04:09:27;21.33;;;13.00;;
7308;SDS011;3695;53.330;9.876;2022-08-19T04:11:54;21.20;;;12.10;;
7308;SDS011;3695;53.330;9.876;2022-08-19T04:14:22;21.27;;;12.20;;
7308;SDS011;3695;53.330;9.876;2022-08-19T04:16:51;22.30;;;12.53;;
7308;SDS011;3695;53.330;9.876;2022-08-19T04:19:18;21.13;;;11.30;;
7308;SDS011;3695;53.330;9.876;2022-08-19T04:21:53;22.63;;;12.23;;
7308;SDS011;3695;53.330;9.876;2022-08-19T04:24:20;21.77;;;11.73;;
7308;SDS011;3695;53.330;9.876;2022-08-19T04:26:48;23.33;;;12.83;;
7308;SDS011;3695;53.330;9.876;2022-08-19T04:29:16;26.77;;;12.27;;
7308;SDS011;3695;53.330;9.876;2022-08-19T04:31:46;26.50;;;12.37;;
7308;SDS011;3695;53.330;9.876;2022-08-19T04:34:15;24.83;;;13.00;;
7308;SDS011;3695;53.330;9.876;2022-08-19T04:36:43;24.23;;;13.07;;
7308;SDS011;3695;53.330;9.876;2022-08-19T04:39:13;23.70;;;12.23;;
7308;SDS011;3695;53.330;9.876;2022-08-19T04:41:42;23.07;;;12.23;;
7308;SDS011;3695;53.330;9.876;2022-08-19T04:44:26;24.63;;;12.20;;
7308;SDS011;3695;53.330;9.876;2022-08-19T04:46:55;22.40;;;12.07;;
7308;SDS011;3695;53.330;9.876;2022-08-19T04:49:23;22.03;;;13.27;;
7308;SDS011;3695;53.330;9.876;2022-08-19T04:51:51;32.30;;;15.50;;
7308;SDS011;3695;53.330;9.876;2022-08-19T04:54:20;29.33;;;12.07;;
7308;SDS011;3695;53.330;9.876;2022-08-19T04:56:49;25.77;;;13.70;;
7308;SDS011;3695;53.330;9.876;2022-08-19T04:59:17;32.37;;;14.70;;
7308;SDS011;3695;53.330;9.876;2022-08-19T05:01:45;24.33;;;13.23;;
7308;SDS011;3695;53.330;9.876;2022-08-19T05:04:15;23.27;;;13.17;;
7308;SDS011;3695;53.330;9.876;2022-08-19T05:06:44;26.00;;;13.33;;
7308;SDS011;3695;53.330;9.876;2022-08-19T05:09:12;23.90;;;14.37;;
7308;SDS011;3695;53.330;9.876;2022-08-19T05:11:38;23.53;;;13.70;;
7308;SDS011;3695;53.330;9.876;2022-08-19T05:14:05;25.30;;;13.80;;
7308;SDS011;3695;53.330;9.876;2022-08-19T05:16:31;28.47;;;14.27;;
7308;SDS011;3695;53.330;9.876;2022-08-19T05:18:58;22.40;;;13.43;;
7308;SDS011;3695;53.330;9.876;2022-08-19T05:21:42;22.87;;;13.20;;
7308;SDS011;3695;53.330;9.876;2022-08-19T05:24:28;27.47;;;13.23;;
7308;SDS011;3695;53.330;9.876;2022-08-19T05:26:55;26.03;;;13.93;;
7308;SDS011;3695;53.330;9.876;2022-08-19T05:29:23;27.13;;;14.03;;
7308;SDS011;3695;53.330;9.876;2022-08-19T05:31:51;21.30;;;13.93;;
7308;SDS011;3695;53.330;9.876;2022-08-19T05:34:19;25.50;;;13.20;;
7308;SDS011;3695;53.330;9.876;2022-08-19T05:36:49;26.57;;;13.77;;
7308;SDS011;3695;53.330;9.876;2022-08-19T05:39:22;22.77;;;12.63;;
7308;SDS011;3695;53.330;9.876;2022-08-19T05:41:52;24.80;;;13.93;;
7308;SDS011;3695;53.330;9.876;2022-08-19T05:44:22;22.60;;;14.83;;
7308;SDS011;3695;53.330;9.876;2022-08-19T05:46:49;27.50;;;13.97;;
7308;SDS011;3695;53.330;9.876;2022-08-19T05:49:18;26.33;;;14.33;;
7308;SDS011;3695;53.330;9.876;2022-08-19T05:51:45;28.47;;;14.97;;
7308;SDS011;3695;53.330;9.876;2022-08-19T05:54:11;26.17;;;13.90;;
7308;SDS011;3695;53.330;9.876;2022-08-19T05:56:39;22.30;;;13.47;;
7308;SDS011;3695;53.330;9.876;2022-08-19T05:59:08;25.97;;;14.37;;
7308;SDS011;3695;53.330;9.876;2022-08-19T06:01:36;23.13;;;12.90;;
7308;SDS011;3695;53.330;9.876;2022-08-19T06:04:03;26.63;;;13.73;;
7308;SDS011;3695;53.330;9.876;2022-08-19T06:06:31;26.67;;;14.90;;
7308;SDS011;3695;53.330;9.876;2022-08-19T06:08:59;26.50;;;15.37;;
7308;SDS011;3695;53.330;9.876;2022-08-19T06:11:31;22.13;;;14.27;;
7308;SDS011;3695;53.330;9.876;2022-08-19T06:14:00;29.03;;;14.10;;
7308;SDS011;3695;53.330;9.876;2022-08-19T06:16:30;24.17;;;14.03;;
7308;SDS011;3695;53.330;9.876;2022-08-19T06:19:00;21.17;;;13.37;;
7308;SDS011;3695;53.330;9.876;2022-08-19T06:21:28;25.53;;;13.27;;
7308;SDS011;3695;53.330;9.876;2022-08-19T06:23:56;26.63;;;15.83;;
7308;SDS011;3695;53.330;9.876;2022-08-19T06:26:24;26.10;;;15.20;;
7308;SDS011;3695;53.330;9.876;2022-08-19T06:28:51;22.47;;;14.27;;
7308;SDS011;3695;53.330;9.876;2022-08-19T06:31:20;28.87;;;14.90;;
7308;SDS011;3695;53.330;9.876;2022-08-19T06:33:49;20.70;;;13.37;;
7308;SDS011;3695;53.330;9.876;2022-08-19T06:36:17;27.40;;;15.03;;
7308;SDS011;3695;53.330;9.876;2022-08-19T06:38:45;19.90;;;12.80;;
7308;SDS011;3695;53.330;9.876;2022-08-19T06:41:11;22.87;;;13.73;;
7308;SDS011;3695;53.330;9.876;2022-08-19T06:43:38;30.70;;;15.03;;
7308;SDS011;3695;53.330;9.876;2022-08-19T06:46:09;28.50;;;14.87;;
7308;SDS011;3695;53.330;9.876;2022-08-19T06:48:38;21.93;;;14.63;;
7308;SDS011;3695;53.330;9.876;2022-08-19T06:51:06;25.73;;;14.80;;
7308;SDS011;3695;53.330;9.876;2022-08-19T06:53:32;24.37;;;14.03;;
7308;SDS011;3695;53.330;9.876;2022-08-19T06:55:59;24.17;;;13.77;;
7308;SDS011;3695;53.330;9.876;2022-08-19T06:58:27;22.47;;;14.47;;
7308;SDS011;3695;53.330;9.876;2022-08-19T07:00:56;22.63;;;14.40;;
7308;SDS011;3695;53.330;9.876;2022-08-19T07:03:25;24.07;;;14.00;;
7308;SDS011;3695;53.330;9.876;2022-08-19T07:05:53;27.13;;;15.30;;
7308;SDS011;3695;53.330;9.876;2022-08-19T07:08:21;23.60;;;14.40;;
7308;SDS011;3695;53.330;9.876;2022-08-19T07:10:47;23.40;;;14.57;;
7308;SDS011;3695;53.330;9.876;2022-08-19T07:13:14;31.60;;;14.50;;
7308;SDS011;3695;53.330;9.876;2022-08-19T07:15:40;26.17;;;14.40;;
7308;SDS011;3695;53.330;9.876;2022-08-19T07:18:07;20.07;;;14.67;;
7308;SDS011;3695;53.330;9.876;2022-08-19T07:20:33;20.83;;;13.17;;
7308;SDS011;3695;53.330;9.876;2022-08-19T07:23:02;22.70;;;13.40;;
7308;SDS011;3695;53.330;9.876;2022-08-19T07:25:29;27.03;;;13.70;;
7308;SDS011;3695;53.330;9.876;2022-08-19T07:27:56;22.67;;;13.27;;
7308;SDS011;3695;53.330;9.876;2022-08-19T07:30:22;21.17;;;12.77;;
7308;SDS011;3695;53.330;9.876;2022-08-19T07:32:49;21.90;;;12.40;;
7308;SDS011;3695;53.330;9.876;2022-08-19T07:35:16;18.47;;;12.43;;
7308;SDS011;3695;53.330;9.876;2022-08-19T07:37:44;24.23;;;12.53;;
7308;SDS011;3695;53.330;9.876;2022-08-19T07:40:11;20.83;;;12.87;;
7308;SDS011;3695;53.330;9.876;2022-08-19T07:42:40;22.17;;;12.73;;
7308;SDS011;3695;53.330;9.876;2022-08-19T07:45:07;20.73;;;12.63;;
7308;SDS011;3695;53.330;9.876;2022-08-19T07:47:35;19.80;;;12.90;;
7308;SDS011;3695;53.330;9.876;2022-08-19T07:50:02;22.40;;;13.07;;
7308;SDS011;3695;53.330;9.876;2022-08-19T07:52:30;19.37;;;12.43;;
7308;SDS011;3695;53.330;9.876;2022-08-19T07:54:56;18.63;;;11.43;;
7308;SDS011;3695;53.330;9.876;2022-08-19T07:57:24;18.73;;;12.63;;
7308;SDS011;3695;53.330;9.876;2022-08-19T07:59:52;21.90;;;13.10;;
7308;SDS011;3695;53.330;9.876;2022-08-19T08:02:19;19.17;;;13.47;;
7308;SDS011;3695;53.330;9.876;2022-08-19T08:04:45;21.77;;;13.40;;
7308;SDS011;3695;53.330;9.876;2022-08-19T08:07:29;20.53;;;13.63;;
7308;SDS011;3695;53.330;9.876;2022-08-19T08:10:13;20.87;;;12.67;;
7308;SDS011;3695;53.330;9.876;2022-08-19T08:12:40;22.93;;;13.27;;
7308;SDS011;3695;53.330;9.876;2022-08-19T08:15:10;25.33;;;13.33;;
7308;SDS011;3695;53.330;9.876;2022-08-19T08:17:41;20.83;;;13.20;;
7308;SDS011;3695;53.330;9.876;2022-08-19T08:20:09;22.10;;;14.00;;
7308;SDS011;3695;53.330;9.876;2022-08-19T08:22:36;24.87;;;15.20;;
7308;SDS011;3695;53.330;9.876;2022-08-19T08:25:21;24.87;;;14.87;;
7308;SDS011;3695;53.330;9.876;2022-08-19T08:27:49;27.63;;;16.10;;
7308;SDS011;3695;53.330;9.876;2022-08-19T08:30:19;29.90;;;15.90;;
7308;SDS011;3695;53.330;9.876;2022-08-19T08:32:48;27.57;;;16.43;;
7308;SDS011;3695;53.330;9.876;2022-08-19T08:35:15;33.63;;;15.87;;
7308;SDS011;3695;53.330;9.876;2022-08-19T08:37:45;29.00;;;18.13;;
7308;SDS011;3695;53.330;9.876;2022-08-19T08:40:17;27.70;;;17.30;;
7308;SDS011;3695;53.330;9.876;2022-08-19T08:42:49;29.63;;;17.30;;
7308;SDS011;3695;53.330;9.876;2022-08-19T08:45:21;29.40;;;16.37;;
7308;SDS011;3695;53.330;9.876;2022-08-19T08:47:50;30.27;;;17.70;;
7308;SDS011;3695;53.330;9.876;2022-08-19T08:50:20;30.53;;;18.50;;
7308;SDS011;3695;53.330;9.876;2022-08-19T08:52:52;31.00;;;16.80;;
7308;SDS011;3695;53.330;9.876;2022-08-19T08:55:22;27.90;;;17.07;;
7308;SDS011;3695;53.330;9.876;2022-08-19T08:57:52;33.53;;;18.57;;
7308;SDS011;3695;53.330;9.876;2022-08-19T09:00:27;32.60;;;18.30;;
7308;SDS011;3695;53.330;9.876;2022-08-19T09:02:56;25.27;;;16.93;;
7308;SDS011;3695;53.330;9.876;2022-08-19T09:05:25;31.27;;;16.53;;
7308;SDS011;3695;53.330;9.876;2022-08-19T09:08:00;27.57;;;17.73;;
7308;SDS011;3695;53.330;9.876;2022-08-19T09:10:33;27.20;;;17.00;;
7308;SDS011;3695;53.330;9.876;2022-08-19T09:13:05;26.43;;;16.43;;
7308;SDS011;3695;53.330;9.876;2022-08-19T09:15:40;26.87;;;15.83;;
7308;SDS011;3695;53.330;9.876;2022-08-19T09:18:11;27.33;;;15.20;;
7308;SDS011;3695;53.330;9.876;2022-08-19T09:20:37;29.83;;;16.73;;
7308;SDS011;3695;53.330;9.876;2022-08-19T09:23:03;32.28;;;16.92;;
7308;SDS011;3695;53.330;9.876;2022-08-19T09:25:30;29.30;;;17.30;;
7308;SDS011;3695;53.330;9.876;2022-08-19T09:27:57;25.63;;;15.43;;
7308;SDS011;3695;53.330;9.876;2022-08-19T09:30:28;25.70;;;16.80;;
7308;SDS011;3695;53.330;9.876;2022-08-19T09:32:59;25.65;;;15.18;;
7308;SDS011;3695;53.330;9.876;2022-08-19T09:35:27;21.73;;;14.53;;
7308;SDS011;3695;53.330;9.876;2022-08-19T09:37:55;22.80;;;15.87;;
7308;SDS011;3695;53.330;9.876;2022-08-19T09:40:22;24.83;;;15.77;;
7308;SDS011;3695;53.330;9.876;2022-08-19T09:42:49;23.80;;;14.90;;
7308;SDS011;3695;53.330;9.876;2022-08-19T09:45:18;30.67;;;16.60;;
7308;SDS011;3695;53.330;9.876;2022-08-19T09:47:46;21.17;;;15.00;;
7308;SDS011;3695;53.330;9.876;2022-08-19T09:50:15;22.37;;;14.93;;
7308;SDS011;3695;53.330;9.876;2022-08-19T09:52:41;21.15;;;13.30;;
7308;SDS011;3695;53.330;9.876;2022-08-19T09:55:08;23.80;;;12.90;;
7308;SDS011;3695;53.330;9.876;2022-08-19T09:57:36;21.52;;;14.65;;
7308;SDS011;3695;53.330;9.876;2022-08-19T10:00:04;18.73;;;13.88;;
7308;SDS011;3695;53.330;9.876;2022-08-19T10:02:33;24.83;;;14.95;;
7308;SDS011;3695;53.330;9.876;2022-08-19T10:04:59;20.17;;;13.65;;
7308;SDS011;3695;53.330;9.876;2022-08-19T10:07:45;18.40;;;13.70;;
7308;SDS011;3695;53.330;9.876;2022-08-19T10:10:11;21.05;;;14.95;;
7308;SDS011;3695;53.330;9.876;2022-08-19T10:12:38;21.20;;;13.05;;
7308;SDS011;3695;53.330;9.876;2022-08-19T10:15:05;18.35;;;13.70;;
7308;SDS011;3695;53.330;9.876;2022-08-19T10:17:32;20.85;;;14.45;;
7308;SDS011;3695;53.330;9.876;2022-08-19T10:20:00;22.33;;;13.82;;
7308;SDS011;3695;53.330;9.876;2022-08-19T10:22:27;21.73;;;13.23;;
7308;SDS011;3695;53.330;9.876;2022-08-19T10:24:55;20.90;;;13.02;;
7308;SDS011;3695;53.330;9.876;2022-08-19T10:27:21;21.75;;;12.68;;
7308;SDS011;3695;53.330;9.876;2022-08-19T10:29:48;21.35;;;12.82;;
7308;SDS011;3695;53.330;9.876;2022-08-19T10:32:15;18.42;;;10.98;;
7308;SDS011;3695;53.330;9.876;2022-08-19T10:34:41;19.30;;;13.57;;
7308;SDS011;3695;53.330;9.876;2022-08-19T10:37:08;18.17;;;13.13;;
7308;SDS011;3695;53.330;9.876;2022-08-19T10:39:35;18.13;;;12.30;;
7308;SDS011;3695;53.330;9.876;2022-08-19T10:42:05;20.25;;;13.10;;
7308;SDS011;3695;53.330;9.876;2022-08-19T10:44:32;20.05;;;13.05;;
7308;SDS011;3695;53.330;9.876;2022-08-19T10:47:00;21.50;;;13.38;;
7308;SDS011;3695;53.330;9.876;2022-08-19T10:49:27;18.83;;;12.75;;
7308;SDS011;3695;53.330;9.876;2022-08-19T10:51:54;18.63;;;12.48;;
7308;SDS011;3695;53.330;9.876;2022-08-19T10:54:38;18.33;;;13.98;;
7308;SDS011;3695;53.330;9.876;2022-08-19T10:57:23;19.70;;;12.90;;
7308;SDS011;3695;53.330;9.876;2022-08-19T10:59:54;20.15;;;13.13;;
7308;SDS011;3695;53.330;9.876;2022-08-19T11:02:21;19.23;;;13.95;;
7308;SDS011;3695;53.330;9.876;2022-08-19T11:04:47;19.27;;;12.70;;
7308;SDS011;3695;53.330;9.876;2022-08-19T11:07:16;19.38;;;13.32;;
7308;SDS011;3695;53.330;9.876;2022-08-19T11:09:43;22.48;;;14.02;;
7308;SDS011;3695;53.330;9.876;2022-08-19T11:12:11;22.20;;;14.52;;
7308;SDS011;3695;53.330;9.876;2022-08-19T11:14:40;24.50;;;15.30;;
7308;SDS011;3695;53.330;9.876;2022-08-19T11:17:07;22.58;;;15.07;;
7308;SDS011;3695;53.330;9.876;2022-08-19T11:19:34;23.50;;;14.38;;
7308;SDS011;3695;53.330;9.876;2022-08-19T11:22:00;19.20;;;13.82;;
7308;SDS011;3695;53.330;9.876;2022-08-19T11:24:27;19.85;;;14.10;;
7308;SDS011;3695;53.330;9.876;2022-08-19T11:26:58;21.23;;;14.95;;
7308;SDS011;3695;53.330;9.876;2022-08-19T11:29:29;23.83;;;15.10;;
7308;SDS011;3695;53.330;9.876;2022-08-19T11:31:58;23.35;;;14.73;;
7308;SDS011;3695;53.330;9.876;2022-08-19T11:34:27;18.85;;;13.38;;
7308;SDS011;3695;53.330;9.876;2022-08-19T11:36:54;21.40;;;14.93;;
7308;SDS011;3695;53.330;9.876;2022-08-19T11:39:23;18.58;;;13.15;;
7308;SDS011;3695;53.330;9.876;2022-08-19T11:41:50;16.75;;;12.73;;
7308;SDS011;3695;53.330;9.876;2022-08-19T11:44:17;16.42;;;13.25;;
7308;SDS011;3695;53.330;9.876;2022-08-19T11:46:44;17.63;;;12.73;;
7308;SDS011;3695;53.330;9.876;2022-08-19T11:49:13;18.25;;;12.80;;
7308;SDS011;3695;53.330;9.876;2022-08-19T11:51:41;16.17;;;12.88;;
7308;SDS011;3695;53.330;9.876;2022-08-19T11:54:09;18.40;;;12.52;;
7308;SDS011;3695;53.330;9.876;2022-08-19T11:56:37;16.80;;;12.43;;
7308;SDS011;3695;53.330;9.876;2022-08-19T11:59:05;18.98;;;13.00;;
7308;SDS011;3695;53.330;9.876;2022-08-19T12:01:32;17.85;;;12.18;;
7308;SDS011;3695;53.330;9.876;2022-08-19T12:03:59;19.75;;;12.35;;
7308;SDS011;3695;53.330;9.876;2022-08-19T12:06:29;17.70;;;12.93;;
7308;SDS011;3695;53.330;9.876;2022-08-19T12:08:59;17.17;;;11.75;;
7308;SDS011;3695;53.330;9.876;2022-08-19T12:11:27;15.57;;;10.88;;
7308;SDS011;3695;53.330;9.876;2022-08-19T12:13:54;15.13;;;11.45;;
7308;SDS011;3695;53.330;9.876;2022-08-19T12:16:22;18.20;;;11.77;;
7308;SDS011;3695;53.330;9.876;2022-08-19T12:18:51;15.38;;;11.90;;
7308;SDS011;3695;53.330;9.876;2022-08-19T12:21:19;13.38;;;10.75;;
7308;SDS011;3695;53.330;9.876;2022-08-19T12:23:49;14.07;;;11.85;;
7308;SDS011;3695;53.330;9.876;2022-08-19T12:26:17;17.40;;;12.15;;
7308;SDS011;3695;53.330;9.876;2022-08-19T12:28:44;14.65;;;10.70;;
7308;SDS011;3695;53.330;9.876;2022-08-19T12:31:11;12.07;;;10.25;;
7308;SDS011;3695;53.330;9.876;2022-08-19T12:33:37;11.88;;;9.75;;
7308;SDS011;3695;53.330;9.876;2022-08-19T12:36:05;11.85;;;9.40;;
7308;SDS011;3695;53.330;9.876;2022-08-19T12:38:34;16.65;;;12.15;;
7308;SDS011;3695;53.330;9.876;2022-08-19T12:41:03;13.65;;;10.63;;
7308;SDS011;3695;53.330;9.876;2022-08-19T12:43:32;13.23;;;10.15;;
7308;SDS011;3695;53.330;9.876;2022-08-19T12:45:59;12.57;;;9.68;;
7308;SDS011;3695;53.330;9.876;2022-08-19T12:48:26;11.15;;;8.70;;
7308;SDS011;3695;53.330;9.876;2022-08-19T12:50:54;15.75;;;11.38;;
7308;SDS011;3695;53.330;9.876;2022-08-19T12:53:20;12.35;;;9.15;;
7308;SDS011;3695;53.330;9.876;2022-08-19T12:55:46;13.73;;;11.65;;
7308;SDS011;3695;53.330;9.876;2022-08-19T12:58:14;11.88;;;9.82;;
7308;SDS011;3695;53.330;9.876;2022-08-19T13:00:42;12.38;;;9.45;;
7308;SDS011;3695;53.330;9.876;2022-08-19T13:03:09;12.20;;;10.60;;
7308;SDS011;3695;53.330;9.876;2022-08-19T13:05:36;11.60;;;9.98;;
7308;SDS011;3695;53.330;9.876;2022-08-19T13:08:02;15.13;;;10.48;;
7308;SDS011;3695;53.330;9.876;2022-08-19T13:10:30;12.52;;;10.23;;
7308;SDS011;3695;53.330;9.876;2022-08-19T13:13:00;12.20;;;9.77;;
7308;SDS011;3695;53.330;9.876;2022-08-19T13:15:29;10.13;;;8.93;;
7308;SDS011;3695;53.330;9.876;2022-08-19T13:17:59;11.27;;;8.95;;
7308;SDS011;3695;53.330;9.876;2022-08-19T13:20:26;11.73;;;9.82;;
7308;SDS011;3695;53.330;9.876;2022-08-19T13:22:53;13.68;;;9.32;;
7308;SDS011;3695;53.330;9.876;2022-08-19T13:25:20;11.07;;;9.10;;
7308;SDS011;3695;53.330;9.876;2022-08-19T13:27:47;11.63;;;9.75;;
7308;SDS011;3695;53.330;9.876;2022-08-19T13:30:16;10.40;;;8.45;;
7308;SDS011;3695;53.330;9.876;2022-08-19T13:33:02;12.60;;;9.13;;
7308;SDS011;3695;53.330;9.876;2022-08-19T13:35:39;12.07;;;9.55;;
7308;SDS011;3695;53.330;9.876;2022-08-19T13:38:07;13.32;;;9.63;;
7308;SDS011;3695;53.330;9.876;2022-08-19T13:40:34;11.55;;;8.98;;
7308;SDS011;3695;53.330;9.876;2022-08-19T13:43:01;12.27;;;9.02;;
7308;SDS011;3695;53.330;9.876;2022-08-19T13:45:29;9.55;;;8.10;;
7308;SDS011;3695;53.330;9.876;2022-08-19T13:47:57;11.60;;;9.50;;
7308;SDS011;3695;53.330;9.876;2022-08-19T13:50:26;11.27;;;9.20;;
7308;SDS011;3695;53.330;9.876;2022-08-19T13:52:54;11.45;;;8.85;;
7308;SDS011;3695;53.330;9.876;2022-08-19T13:55:21;10.57;;;8.68;;
7308;SDS011;3695;53.330;9.876;2022-08-19T13:57:49;10.55;;;8.50;;
7308;SDS011;3695;53.330;9.876;2022-08-19T14:00:16;12.43;;;9.85;;
7308;SDS011;3695;53.330;9.876;2022-08-19T14:02:44;12.32;;;10.15;;
7308;SDS011;3695;53.330;9.876;2022-08-19T14:05:14;12.20;;;8.88;;
7308;SDS011;3695;53.330;9.876;2022-08-19T14:07:43;10.32;;;8.30;;
7308;SDS011;3695;53.330;9.876;2022-08-19T14:10:10;9.65;;;7.95;;
7308;SDS011;3695;53.330;9.876;2022-08-19T14:12:39;12.80;;;9.27;;
7308;SDS011;3695;53.330;9.876;2022-08-19T14:15:06;12.88;;;9.57;;
7308;SDS011;3695;53.330;9.876;2022-08-19T14:17:36;9.60;;;8.43;;
7308;SDS011;3695;53.330;9.876;2022-08-19T14:20:04;10.40;;;8.60;;
7308;SDS011;3695;53.330;9.876;2022-08-19T14:22:34;12.20;;;9.35;;
7308;SDS011;3695;53.330;9.876;2022-08-19T14:25:04;10.15;;;8.18;;
7308;SDS011;3695;53.330;9.876;2022-08-19T14:27:32;9.13;;;8.23;;
7308;SDS011;3695;53.330;9.876;2022-08-19T14:29:59;10.20;;;8.50;;
7308;SDS011;3695;53.330;9.876;2022-08-19T14:32:25;10.23;;;8.95;;
7308;SDS011;3695;53.330;9.876;2022-08-19T14:34:52;10.70;;;7.93;;
7308;SDS011;3695;53.330;9.876;2022-08-19T14:37:19;10.55;;;8.55;;
7308;SDS011;3695;53.330;9.876;2022-08-19T14:39:46;8.85;;;7.95;;
7308;SDS011;3695;53.330;9.876;2022-08-19T14:42:14;9.35;;;8.45;;
7308;SDS011;3695;53.330;9.876;2022-08-19T14:44:41;9.07;;;8.18;;
7308;SDS011;3695;53.330;9.876;2022-08-19T14:47:08;9.90;;;8.70;;
7308;SDS011;3695;53.330;9.876;2022-08-19T14:49:34;9.95;;;9.02;;
7308;SDS011;3695;53.330;9.876;2022-08-19T14:52:02;10.15;;;7.97;;
7308;SDS011;3695;53.330;9.876;2022-08-19T14:54:29;9.77;;;8.15;;
7308;SDS011;3695;53.330;9.876;2022-08-19T14:56:56;9.45;;;7.45;;
7308;SDS011;3695;53.330;9.876;2022-08-19T14:59:24;9.35;;;7.95;;
7308;SDS011;3695;53.330;9.876;2022-08-19T15:01:50;8.73;;;7.70;;